createdAt,value
2024-04-06T00:00:40.147Z,999.9
2024-04-06T00:02:02.545Z,999.9
2024-04-06T00:03:26.124Z,999.9
2024-04-06T00:04:46.073Z,999.9
2024-04-06T00:06:08.077Z,999.9
2024-04-06T00:07:30.083Z,999.9
2024-04-06T00:08:52.077Z,999.9
2024-04-06T00:10:14.101Z,999.5
2024-04-06T00:11:36.092Z,999.9
2024-04-06T00:12:58.142Z,1000
2024-04-06T00:13:39.107Z,1000.1
2024-04-06T00:15:01.123Z,1000
2024-04-06T00:17:05.077Z,1000
2024-04-06T00:18:27.088Z,999.9
2024-04-06T00:19:49.127Z,1000
2024-04-06T00:21:52.082Z,1000.1
2024-04-06T00:23:14.108Z,1000.2
2024-04-06T00:26:39.093Z,1000.2
2024-04-06T00:28:43.201Z,1000.3
2024-04-06T00:30:05.116Z,1000.3
2024-04-06T00:31:27.200Z,1000.3
2024-04-06T00:32:49.148Z,1000.3
2024-04-06T00:34:11.119Z,1000.3
2024-04-06T00:35:33.099Z,1000.3
2024-04-06T00:36:55.281Z,1000.1
2024-04-06T00:38:17.119Z,1000.3
2024-04-06T00:39:39.097Z,1000.3
2024-04-06T00:40:20.108Z,1000.3
2024-04-06T00:41:01.119Z,1000.3
2024-04-06T00:42:24.200Z,1000.4
2024-04-06T00:43:46.098Z,1000.3
2024-04-06T00:45:08.105Z,1000.4
2024-04-06T00:46:30.102Z,1000.4
2024-04-06T00:47:52.199Z,1000.4
2024-04-06T00:49:14.130Z,1000.5
2024-04-06T00:50:36.120Z,1000.3
2024-04-06T00:51:58.124Z,1000.5
2024-04-06T00:53:20.117Z,1000.6
2024-04-06T00:54:43.171Z,1000.6
2024-04-06T00:56:05.133Z,1000.6
2024-04-06T00:58:08.118Z,1000.6
2024-04-06T00:59:30.142Z,1000.6
2024-04-06T01:02:55.127Z,1000.4
2024-04-06T01:03:36.149Z,1000.5
2024-04-06T01:04:58.116Z,1000.6
2024-04-06T01:06:20.117Z,1000.6
2024-04-06T01:07:43.128Z,1000.7
2024-04-06T01:09:05.111Z,1000.8
2024-04-06T01:11:08.145Z,1000.8
2024-04-06T01:13:11.142Z,1000.8
2024-04-06T01:14:34.138Z,1000.8
2024-04-06T01:15:56.219Z,1000.9
2024-04-06T01:17:18.129Z,1000.8
2024-04-06T01:18:40.139Z,1000.8
2024-04-06T01:20:03.126Z,1000.8
2024-04-06T01:21:26.154Z,1000.8
2024-04-06T01:22:52.136Z,1000.9
2024-04-06T01:24:14.129Z,1000.9
2024-04-06T01:25:36.141Z,1000.9
2024-04-06T01:26:58.221Z,1001
2024-04-06T01:28:20.131Z,1001
2024-04-06T01:29:43.161Z,1000.9
2024-04-06T01:31:05.133Z,1000.9
2024-04-06T01:32:27.262Z,1001
2024-04-06T01:37:07.137Z,1001
2024-04-06T01:38:29.204Z,1001
2024-04-06T01:39:51.124Z,1001
2024-04-06T01:41:13.136Z,1001
2024-04-06T01:42:35.136Z,1001
2024-04-06T01:43:57.230Z,1001
2024-04-06T01:45:19.142Z,1001.1
2024-04-06T01:46:41.131Z,1001.1
2024-04-06T01:48:03.178Z,1001.1
2024-04-06T01:49:25.159Z,1001.2
2024-04-06T01:50:47.248Z,1001.1
2024-04-06T01:52:09.168Z,1001.1
2024-04-06T01:53:31.193Z,1001.1
2024-04-06T01:54:53.191Z,1001.1
2024-04-06T01:56:15.233Z,1001.1
2024-04-06T01:57:37.157Z,1001
2024-04-06T01:58:59.138Z,1001.1
2024-04-06T02:00:21.470Z,1000.3
2024-04-06T02:02:24.150Z,1001.1
2024-04-06T02:03:46.172Z,1001.1
2024-04-06T02:07:11.167Z,1001.2
2024-04-06T02:09:15.205Z,1001.2
2024-04-06T02:10:37.160Z,1001.2
2024-04-06T02:11:59.179Z,1001.2
2024-04-06T02:13:28.160Z,1001.2
2024-04-06T02:15:32.252Z,1001.3
2024-04-06T02:16:54.170Z,1001.2
2024-04-06T02:18:16.149Z,1001.3
2024-04-06T02:19:38.151Z,1001.3
2024-04-06T02:21:00.162Z,1001.3
2024-04-06T02:22:22.159Z,1001.2
2024-04-06T02:23:44.158Z,1001.3
2024-04-06T02:25:06.177Z,1001.4
2024-04-06T02:26:28.184Z,1001.4
2024-04-06T02:27:51.151Z,1001.4
2024-04-06T02:29:13.171Z,1001.3
2024-04-06T02:30:35.157Z,1001.4
2024-04-06T02:31:57.156Z,1001.3
2024-04-06T02:33:19.174Z,1001.4
2024-04-06T02:34:41.156Z,1001.4
2024-04-06T02:36:03.169Z,1001.4
2024-04-06T02:37:25.186Z,1001.4
2024-04-06T02:38:47.180Z,1001.4
2024-04-06T02:40:09.166Z,1001.4
2024-04-06T02:41:31.197Z,1001.4
2024-04-06T02:42:53.172Z,1001.3
2024-04-06T02:44:56.205Z,1001.3
2024-04-06T02:46:18.162Z,1001.4
2024-04-06T02:49:43.206Z,1001.3
2024-04-06T02:51:46.183Z,1001.4
2024-04-06T02:53:08.272Z,1001.3
2024-04-06T02:54:30.170Z,1001.4
2024-04-06T02:55:12.192Z,1001.4
2024-04-06T02:57:15.198Z,1001.4
2024-04-06T02:57:56.187Z,1001.3
2024-04-06T02:59:59.168Z,1001.4
2024-04-06T03:01:23.396Z,1001.4
2024-04-06T03:02:48.163Z,1001.4
2024-04-06T03:04:13.230Z,1001.4
2024-04-06T03:06:18.195Z,1001.4
2024-04-06T03:07:47.189Z,1001.3
2024-04-06T03:09:10.446Z,1001.4
2024-04-06T03:10:33.224Z,1001.4
2024-04-06T03:12:03.208Z,1001.5
2024-04-06T03:13:25.204Z,1001.4
2024-04-06T03:14:51.053Z,1001.4
2024-04-06T03:16:13.227Z,1001.5
2024-04-06T03:16:54.198Z,1001.5
2024-04-06T03:18:16.282Z,1001.5
2024-04-06T03:18:57.192Z,1001.3
2024-04-06T03:20:19.193Z,1001.6
2024-04-06T03:21:41.186Z,1001.6
2024-04-06T03:23:03.182Z,1001.6
2024-04-06T03:24:25.215Z,1001.5
2024-04-06T03:25:47.196Z,1001.6
2024-04-06T03:27:09.201Z,1001.6
2024-04-06T03:28:31.187Z,1001.6
2024-04-06T03:29:53.219Z,1001.7
2024-04-06T03:31:19.204Z,1001.7
2024-04-06T03:32:46.197Z,1001.7
2024-04-06T03:34:08.204Z,1001.7
2024-04-06T03:35:30.432Z,1001.6
2024-04-06T03:37:39.838Z,1001.6
2024-04-06T03:39:06.857Z,1001.7
2024-04-06T03:40:32.198Z,1001.5
2024-04-06T03:42:02.200Z,1001.7
2024-04-06T03:43:24.226Z,1001.7
2024-04-06T03:44:52.191Z,1001.7
2024-04-06T03:46:16.467Z,1001.7
2024-04-06T03:47:39.634Z,1001.7
2024-04-06T03:49:46.868Z,1001.8
2024-04-06T03:51:15.011Z,1001.7
2024-04-06T03:52:38.203Z,1001.8
2024-04-06T03:54:04.067Z,1001.8
2024-04-06T03:55:27.211Z,1001.8
2024-04-06T03:56:52.246Z,1001.9
2024-04-06T03:58:19.207Z,1001.7
2024-04-06T04:00:26.218Z,1001.8
2024-04-06T04:01:48.431Z,1001.8
2024-04-06T04:03:10.279Z,1001.8
2024-04-06T04:04:32.245Z,1001.8
2024-04-06T04:05:58.213Z,1001.8
2024-04-06T04:06:41.895Z,1001.8
2024-04-06T04:08:08.224Z,1001.8
2024-04-06T04:09:34.853Z,1001.8
2024-04-06T04:10:56.248Z,1001.9
2024-04-06T04:12:18.228Z,1002
2024-04-06T04:13:41.476Z,1001.9
2024-04-06T04:15:03.220Z,1002
2024-04-06T04:15:46.831Z,1002
2024-04-06T04:16:30.136Z,1001.9
2024-04-06T04:17:52.292Z,1002
2024-04-06T04:19:18.104Z,1001.9
2024-04-06T04:20:41.450Z,1001.9
2024-04-06T04:22:05.246Z,1002
2024-04-06T04:23:28.361Z,1002
2024-04-06T04:24:53.327Z,1001.4
2024-04-06T04:28:22.395Z,1002
2024-04-06T04:29:44.250Z,1002.1
2024-04-06T04:31:07.231Z,1002.1
2024-04-06T04:33:11.465Z,1002
2024-04-06T04:33:52.256Z,1002
2024-04-06T04:35:19.103Z,1001.9
2024-04-06T04:36:41.501Z,1002.1
2024-04-06T04:38:06.971Z,1002.1
2024-04-06T04:39:32.265Z,1001.8
2024-04-06T04:40:56.242Z,1002
2024-04-06T04:42:21.243Z,1002.1
2024-04-06T04:43:48.268Z,1002.2
2024-04-06T04:45:17.490Z,1002.2
2024-04-06T04:47:23.516Z,1002.1
2024-04-06T04:48:46.274Z,1002.2
2024-04-06T04:50:09.308Z,1002.2
2024-04-06T04:51:35.983Z,1001.5
2024-04-06T04:52:58.254Z,1002.1
2024-04-06T04:54:20.249Z,1002.1
2024-04-06T04:55:47.276Z,1002.2
2024-04-06T04:57:55.258Z,1002.2
2024-04-06T04:59:20.244Z,1002.2
2024-04-06T05:00:51.202Z,1002.3
2024-04-06T05:02:15.276Z,1002.2
2024-04-06T05:03:37.247Z,1002.3
2024-04-06T05:05:01.269Z,1002.3
2024-04-06T05:06:30.977Z,1002.3
2024-04-06T05:08:39.310Z,1002.3
2024-04-06T05:10:02.827Z,1002.3
2024-04-06T05:11:30.397Z,1002.4
2024-04-06T05:12:53.261Z,1002.4
2024-04-06T05:14:19.264Z,1002.2
2024-04-06T05:15:45.260Z,1002.4
2024-04-06T05:17:10.199Z,1002.3
2024-04-06T05:18:32.274Z,1002.4
2024-04-06T05:19:57.265Z,1002.4
2024-04-06T05:22:01.281Z,1002.4
2024-04-06T05:23:26.291Z,1002.5
2024-04-06T05:25:32.259Z,1002.4
2024-04-06T05:26:54.258Z,1002.3
2024-04-06T05:28:17.274Z,1002.4
2024-04-06T05:29:39.390Z,1002.4
2024-04-06T05:31:49.293Z,1002.5
2024-04-06T05:33:11.277Z,1002.5
2024-04-06T05:34:35.302Z,1002.3
2024-04-06T05:36:00.575Z,1002.5
2024-04-06T05:37:21.269Z,1002.6
2024-04-06T05:40:51.268Z,1002.6
2024-04-06T05:42:15.501Z,1002.6
2024-04-06T05:44:28.084Z,1002.6
2024-04-06T05:45:56.727Z,1002.6
2024-04-06T05:47:18.313Z,1002.6
2024-04-06T05:48:45.431Z,1002.6
2024-04-06T05:50:07.280Z,1002.7
2024-04-06T05:51:29.316Z,1002.5
2024-04-06T05:52:51.292Z,1002.6
2024-04-06T05:54:13.326Z,1002.9
2024-04-06T05:55:35.278Z,1002.7
2024-04-06T05:56:58.528Z,1002.7
2024-04-06T05:58:21.300Z,1002.7
2024-04-06T05:59:49.293Z,1002.7
2024-04-06T06:01:11.292Z,1002.7
2024-04-06T06:02:37.340Z,1002.7
2024-04-06T06:04:01.302Z,1002.7
2024-04-06T06:05:25.511Z,1002.7
2024-04-06T06:06:53.778Z,1002.6
2024-04-06T06:08:59.297Z,1002.6
2024-04-06T06:10:21.293Z,1002.7
2024-04-06T06:11:44.292Z,1002.7
2024-04-06T06:13:06.289Z,1002.7
2024-04-06T06:14:28.287Z,1002.7
2024-04-06T06:15:09.311Z,1002.7
2024-04-06T06:15:50.275Z,1002.7
2024-04-06T06:17:12.501Z,1002.6
2024-04-06T06:18:35.447Z,1002.7
2024-04-06T06:19:57.296Z,1002.7
2024-04-06T06:21:21.336Z,1002.8
2024-04-06T06:22:47.296Z,1002.7
2024-04-06T06:24:51.506Z,1002.7
2024-04-06T06:26:15.310Z,1002.7
2024-04-06T06:28:19.332Z,1002.7
2024-04-06T06:29:44.317Z,1002.7
2024-04-06T06:31:07.296Z,1002.7
2024-04-06T06:32:30.560Z,1002.7
2024-04-06T06:33:53.371Z,1002.7
2024-04-06T06:40:59.310Z,1002.7
2024-04-06T06:42:21.512Z,1002.7
2024-04-06T06:43:45.513Z,1002.7
2024-04-06T06:45:14.304Z,1002.7
2024-04-06T06:46:40.315Z,1002.7
2024-04-06T06:48:02.523Z,1002.7
2024-04-06T06:49:29.317Z,1002.5
2024-04-06T06:50:56.063Z,1002.6
2024-04-06T06:53:00.314Z,1002.7
2024-04-06T06:54:22.573Z,1002.5
2024-04-06T06:55:46.321Z,1002.6
2024-04-06T06:57:08.676Z,1002.7
2024-04-06T06:58:30.578Z,1002.7
2024-04-06T07:00:37.273Z,1002.9
2024-04-06T07:01:18.326Z,1002.8
2024-04-06T07:02:40.339Z,1002.8
2024-04-06T07:04:03.569Z,1002.8
2024-04-06T07:05:29.846Z,1002.9
2024-04-06T07:08:17.064Z,1003
2024-04-06T07:09:42.275Z,1003
2024-04-06T07:11:49.319Z,1003
2024-04-06T07:13:11.360Z,1003
2024-04-06T07:14:34.614Z,1003
2024-04-06T07:15:59.307Z,1003
2024-04-06T07:18:02.414Z,1003
2024-04-06T07:20:52.359Z,1003
2024-04-06T07:23:48.324Z,1002.8
2024-04-06T07:25:55.495Z,1002.9
2024-04-06T07:27:18.334Z,1002.9
2024-04-06T07:28:44.584Z,1002.7
2024-04-06T07:30:06.330Z,1002.9
2024-04-06T07:31:29.335Z,1002.9
2024-04-06T07:32:53.002Z,1002.9
2024-04-06T07:35:00.626Z,1002.8
2024-04-06T07:36:24.452Z,1003
2024-04-06T07:37:46.369Z,1002.9
2024-04-06T07:41:17.168Z,1003
2024-04-06T07:42:39.372Z,1002.9
2024-04-06T07:44:02.359Z,1002.9
2024-04-06T07:46:09.567Z,1002.9
2024-04-06T07:47:32.632Z,1002.9
2024-04-06T07:48:56.499Z,1002.9
2024-04-06T07:50:21.502Z,1002.9
2024-04-06T07:51:46.345Z,1002.9
2024-04-06T07:52:28.381Z,1002.9
2024-04-06T07:53:50.384Z,1002.9
2024-04-06T07:55:13.524Z,1002.9
2024-04-06T07:56:37.373Z,1002.9
2024-04-06T07:58:50.952Z,1002.9
2024-04-06T08:00:15.961Z,1002.2
2024-04-06T08:01:37.366Z,1002.9
2024-04-06T08:03:00.345Z,1002.9
2024-04-06T08:04:23.587Z,1002.9
2024-04-06T08:05:45.378Z,1003
2024-04-06T08:07:07.373Z,1003
2024-04-06T08:08:29.351Z,1003
2024-04-06T08:09:51.368Z,1003
2024-04-06T08:11:16.360Z,1002.9
2024-04-06T08:12:38.569Z,1003.1
2024-04-06T08:14:07.843Z,1003.1
2024-04-06T08:15:23.363Z,1003.1
2024-04-06T08:16:46.389Z,1003.1
2024-04-06T08:18:09.675Z,1003.1
2024-04-06T08:19:32.359Z,1003.2
2024-04-06T08:20:55.383Z,1003.2
2024-04-06T08:22:17.374Z,1003.1
2024-04-06T08:23:40.358Z,1003.1
2024-04-06T08:25:03.387Z,1003.1
2024-04-06T08:27:06.644Z,1003.1
2024-04-06T08:29:10.421Z,1003.1
2024-04-06T08:30:32.365Z,1003.1
2024-04-06T08:31:54.632Z,1003.1
2024-04-06T08:33:20.323Z,1002.5
2024-04-06T08:35:25.417Z,1003.1
2024-04-06T08:36:48.553Z,1003.1
2024-04-06T08:38:11.366Z,1003.1
2024-04-06T08:39:33.393Z,1003.1
2024-04-06T08:41:39.393Z,1002.5
2024-04-06T08:44:29.391Z,1003
2024-04-06T08:46:34.661Z,1003.1
2024-04-06T08:47:56.379Z,1003.1
2024-04-06T08:49:19.384Z,1003.1
2024-04-06T08:50:41.411Z,1003
2024-04-06T08:52:46.428Z,1003
2024-04-06T08:54:49.394Z,1003.1
2024-04-06T08:56:14.392Z,1003.1
2024-04-06T08:57:39.588Z,1003.1
2024-04-06T08:59:02.639Z,1003.1
2024-04-06T09:00:28.561Z,1003.1
2024-04-06T09:01:50.418Z,1003.1
2024-04-06T09:03:12.589Z,1003
2024-04-06T09:04:35.387Z,1003
2024-04-06T09:05:57.417Z,1003
2024-04-06T09:07:19.594Z,1003.1
2024-04-06T09:08:43.694Z,1003.2
2024-04-06T09:10:06.379Z,1003.1
2024-04-06T09:11:28.442Z,1003.1
2024-04-06T09:12:51.602Z,1003
2024-04-06T09:15:00.418Z,1003
2024-04-06T09:16:26.620Z,1003.1
2024-04-06T09:17:48.384Z,1003.1
2024-04-06T09:21:13.442Z,1003
2024-04-06T09:23:16.392Z,1003
2024-04-06T09:24:38.393Z,1003
2024-04-06T09:26:00.395Z,1002.9
2024-04-06T09:29:30.610Z,1003
2024-04-06T09:30:54.568Z,1003
2024-04-06T09:33:02.486Z,1003
2024-04-06T09:34:26.392Z,1003
2024-04-06T09:35:51.168Z,1002.9
2024-04-06T09:37:13.514Z,1003.1
2024-04-06T09:38:35.521Z,1003.1
2024-04-06T09:39:58.452Z,1003.1
2024-04-06T09:41:20.407Z,1003.2
2024-04-06T09:42:43.669Z,1003.1
2024-04-06T09:44:08.413Z,1003
2024-04-06T09:45:30.681Z,1003
2024-04-06T09:46:52.436Z,1003
2024-04-06T09:48:20.328Z,1003
2024-04-06T09:49:46.418Z,1003
2024-04-06T09:51:08.410Z,1003
2024-04-06T09:54:38.618Z,1002.9
2024-04-06T09:56:02.479Z,1002.9
2024-04-06T09:57:27.429Z,1002.9
2024-04-06T09:59:31.445Z,1002.8
2024-04-06T10:00:53.425Z,1002.8
2024-04-06T10:02:16.423Z,1002.8
2024-04-06T10:04:24.305Z,1002.9
2024-04-06T10:05:48.419Z,1002.8
2024-04-06T10:07:15.492Z,1002.8
2024-04-06T10:08:38.436Z,1002.8
2024-04-06T10:10:02.499Z,1002.8
2024-04-06T10:11:30.425Z,1002.9
2024-04-06T10:12:52.694Z,1002.9
2024-04-06T10:15:01.461Z,1002.8
2024-04-06T10:16:24.643Z,1002.8
2024-04-06T10:17:46.450Z,1002.8
2024-04-06T10:19:08.443Z,1002.8
2024-04-06T10:20:30.433Z,1002.8
2024-04-06T10:21:52.694Z,1002.8
2024-04-06T10:23:14.488Z,1002.7
2024-04-06T10:24:36.448Z,1002.8
2024-04-06T10:26:01.100Z,1002.7
2024-04-06T10:27:21.461Z,1002.7
2024-04-06T10:28:46.440Z,1002.7
2024-04-06T10:30:50.432Z,1002.8
2024-04-06T10:32:57.303Z,1002.8
2024-04-06T10:34:19.465Z,1002.9
2024-04-06T10:35:41.444Z,1002.8
2024-04-06T10:37:04.749Z,1002.8
2024-04-06T10:38:28.469Z,1002.9
2024-04-06T10:39:10.774Z,1002.9
2024-04-06T10:40:38.397Z,1003
2024-04-06T10:42:00.444Z,1003
2024-04-06T10:43:22.655Z,1002.9
2024-04-06T10:44:45.586Z,1002.9
2024-04-06T10:46:49.542Z,1002.9
2024-04-06T10:48:14.693Z,1002.9
2024-04-06T10:49:38.669Z,1002.8
2024-04-06T10:53:03.511Z,1002.7
2024-04-06T10:55:07.487Z,1002.8
2024-04-06T10:56:33.314Z,1002.9
2024-04-06T10:57:55.487Z,1002.8
2024-04-06T10:59:17.459Z,1002.8
2024-04-06T11:00:40.520Z,1002.8
2024-04-06T11:02:47.493Z,1002.8
2024-04-06T11:04:12.456Z,1002.8
2024-04-06T11:06:16.668Z,1002.7
2024-04-06T11:07:39.765Z,1002.7
2024-04-06T11:09:02.475Z,1002.7
2024-04-06T11:10:27.464Z,1002.8
2024-04-06T11:12:35.579Z,1002.9
2024-04-06T11:13:55.481Z,1002.9
2024-04-06T11:15:18.463Z,1002.8
2024-04-06T11:16:40.483Z,1002.8
2024-04-06T11:18:50.785Z,1002.8
2024-04-06T11:20:12.523Z,1002.8
2024-04-06T11:21:34.464Z,1002.8
2024-04-06T11:22:57.483Z,1002.8
2024-04-06T11:25:01.499Z,1002.8
2024-04-06T11:26:25.474Z,1002.8
2024-04-06T11:28:30.723Z,1002.8
2024-04-06T11:29:55.338Z,1002.8
2024-04-06T11:31:20.474Z,1002.9
2024-04-06T11:32:47.756Z,1002.9
2024-04-06T11:34:09.560Z,1002.8
2024-04-06T11:35:35.764Z,1002.8
2024-04-06T11:37:00.534Z,1002.9
2024-04-06T11:40:28.652Z,1002.8
2024-04-06T11:41:50.488Z,1002.8
2024-04-06T11:43:56.524Z,1002.8
2024-04-06T11:45:18.488Z,1002.8
2024-04-06T11:46:41.602Z,1002.8
2024-04-06T11:48:07.188Z,1002.9
2024-04-06T11:51:34.703Z,1002.9
2024-04-06T11:52:57.764Z,1002.9
2024-04-06T11:55:02.519Z,1002.8
2024-04-06T11:56:25.722Z,1002.9
2024-04-06T11:57:49.790Z,1002.9
2024-04-06T11:59:12.760Z,1002.8
2024-04-06T12:01:19.223Z,1002.9
2024-04-06T12:02:45.049Z,1002.9
2024-04-06T12:04:10.343Z,1002.9
2024-04-06T12:05:33.504Z,1003
2024-04-06T12:06:55.511Z,1002.9
2024-04-06T12:09:09.466Z,1002.8
2024-04-06T12:10:34.258Z,1002.5
2024-04-06T12:11:59.633Z,1002.3
2024-04-06T12:13:21.593Z,1002.9
2024-04-06T12:14:47.006Z,1002.9
2024-04-06T12:16:08.515Z,1002.8
2024-04-06T12:16:49.493Z,1002.8
2024-04-06T12:17:30.527Z,1002.8
2024-04-06T12:18:52.533Z,1002.8
2024-04-06T12:20:15.783Z,1002.9
2024-04-06T12:21:37.533Z,1002.9
2024-04-06T12:23:02.508Z,1003
2024-04-06T12:24:26.551Z,1003
2024-04-06T12:25:52.549Z,1003
2024-04-06T12:26:37.290Z,1002.9
2024-04-06T12:27:19.506Z,1002.9
2024-04-06T12:28:41.514Z,1002.9
2024-04-06T12:29:23.569Z,1002.9
2024-04-06T12:30:48.746Z,1002.8
2024-04-06T12:32:11.720Z,1002.9
2024-04-06T12:33:33.514Z,1003
2024-04-06T12:34:55.526Z,1002.9
2024-04-06T12:36:19.723Z,1002.9
2024-04-06T12:37:45.532Z,1002.9
2024-04-06T12:39:10.174Z,1002.8
2024-04-06T12:40:34.773Z,1002.9
2024-04-06T12:41:57.546Z,1002.9
2024-04-06T12:43:22.564Z,1003
2024-04-06T12:44:48.525Z,1002.9
2024-04-06T12:46:10.829Z,1002.9
2024-04-06T12:47:33.548Z,1002.8
2024-04-06T12:48:56.533Z,1002.8
2024-04-06T12:50:22.924Z,1002.8
2024-04-06T12:51:45.540Z,1002.8
2024-04-06T12:53:08.543Z,1002.8
2024-04-06T12:54:34.543Z,1002.8
2024-04-06T12:55:57.644Z,1002.8
2024-04-06T12:57:21.522Z,1002.8
2024-04-06T12:58:44.792Z,1002.7
2024-04-06T13:00:09.343Z,1002.8
2024-04-06T13:01:31.604Z,1002.8
2024-04-06T13:03:40.792Z,1002.9
2024-04-06T13:05:38.563Z,1002.9
2024-04-06T13:07:01.537Z,1002.8
2024-04-06T13:08:24.537Z,1002.8
2024-04-06T13:09:46.540Z,1002.8
2024-04-06T13:11:50.553Z,1002.8
2024-04-06T13:13:12.545Z,1002.8
2024-04-06T13:15:21.561Z,1002.8
2024-04-06T13:16:46.543Z,1002.8
2024-04-06T13:18:10.621Z,1002.7
2024-04-06T13:19:34.550Z,1002.7
2024-04-06T13:20:57.791Z,1002.7
2024-04-06T13:22:20.833Z,1002.7
2024-04-06T13:23:43.566Z,1002.7
2024-04-06T13:25:51.495Z,1002.7
2024-04-06T13:27:54.840Z,1002.6
2024-04-06T13:29:16.555Z,1002.6
2024-04-06T13:30:39.666Z,1002.6
2024-04-06T13:32:01.553Z,1002.6
2024-04-06T13:35:28.581Z,1002.6
2024-04-06T13:37:32.558Z,1002.5
2024-04-06T13:38:57.109Z,1002.6
2024-04-06T13:40:19.970Z,1002.5
2024-04-06T13:41:41.569Z,1002.5
2024-04-06T13:43:03.592Z,1002.6
2024-04-06T13:44:27.579Z,1002.6
2024-04-06T13:45:51.634Z,1002.6
2024-04-06T13:47:18.557Z,1002.5
2024-04-06T13:48:40.586Z,1002.7
2024-04-06T13:50:04.553Z,1002.7
2024-04-06T13:51:26.604Z,1002.7
2024-04-06T13:52:49.560Z,1002.7
2024-04-06T13:54:12.786Z,1002.7
2024-04-06T13:57:41.676Z,1002.5
2024-04-06T13:59:06.694Z,1002.8
2024-04-06T13:59:47.572Z,1002.8
2024-04-06T14:01:09.782Z,1002.7
2024-04-06T14:02:31.583Z,1002.7
2024-04-06T14:04:00.355Z,1002.7
2024-04-06T14:05:23.848Z,1002.7
2024-04-06T14:07:30.573Z,1002.6
2024-04-06T14:08:52.632Z,1002.7
2024-04-06T14:10:16.595Z,1002.6
2024-04-06T14:11:42.123Z,1002.6
2024-04-06T14:13:04.862Z,1002.6
2024-04-06T14:13:45.584Z,1002.6
2024-04-06T14:15:10.705Z,1002.5
2024-04-06T14:16:35.188Z,1002.6
2024-04-06T14:17:57.609Z,1002.6
2024-04-06T14:19:21.919Z,1002.6
2024-04-06T14:21:31.578Z,1002.6
2024-04-06T14:22:53.578Z,1002.7
2024-04-06T14:24:16.655Z,1002.6
2024-04-06T14:25:39.647Z,1002.6
2024-04-06T14:27:46.618Z,1002.6
2024-04-06T14:29:08.584Z,1002.6
2024-04-06T14:30:32.613Z,1002.6
2024-04-06T14:33:58.878Z,1002.5
2024-04-06T14:36:04.858Z,1002.6
2024-04-06T14:37:32.603Z,1002.5
2024-04-06T14:38:56.582Z,1002.5
2024-04-06T14:40:18.650Z,1002.6
2024-04-06T14:41:46.873Z,1002.5
2024-04-06T14:43:09.625Z,1002.7
2024-04-06T14:44:35.301Z,1002.5
2024-04-06T14:45:57.651Z,1002.6
2024-04-06T14:46:38.832Z,1002.7
2024-04-06T14:49:31.674Z,1002.8
2024-04-06T14:50:53.596Z,1002.8
2024-04-06T14:52:20.145Z,1002.8
2024-04-06T14:53:44.832Z,1002.7
2024-04-06T14:55:48.610Z,1002.7
2024-04-06T14:57:13.657Z,1002.7
2024-04-06T14:58:38.330Z,1002.8
2024-04-06T15:00:00.680Z,1002.8
2024-04-06T15:03:27.610Z,1002.7
2024-04-06T15:05:31.661Z,1002.7
2024-04-06T15:06:56.723Z,1002.7
2024-04-06T15:08:20.613Z,1002.7
2024-04-06T15:09:39.640Z,1002.7
2024-04-06T15:11:01.866Z,1002.7
2024-04-06T15:13:08.626Z,1002.7
2024-04-06T15:14:30.699Z,1002.8
2024-04-06T15:16:37.627Z,1002.8
2024-04-06T15:17:59.628Z,1002.8
2024-04-06T15:19:23.075Z,1002.8
2024-04-06T15:20:49.615Z,1002.9
2024-04-06T15:22:52.662Z,1002.9
2024-04-06T15:24:15.898Z,1002.9
2024-04-06T15:25:39.626Z,1002.9
2024-04-06T15:27:02.718Z,1002.9
2024-04-06T15:28:30.702Z,1002.9
2024-04-06T15:29:11.654Z,1002.8
2024-04-06T15:30:36.471Z,1002.8
2024-04-06T15:32:01.622Z,1002.8
2024-04-06T15:33:27.635Z,1002.8
2024-04-06T15:34:49.636Z,1002.8
2024-04-06T15:36:11.927Z,1002.7
2024-04-06T15:37:36.652Z,1002.2
2024-04-06T15:38:59.940Z,1002.6
2024-04-06T15:40:21.671Z,1002.7
2024-04-06T15:41:44.657Z,1002.8
2024-04-06T15:43:06.645Z,1002.8
2024-04-06T15:44:29.999Z,1002.7
2024-04-06T15:45:52.647Z,1002.7
2024-04-06T15:46:34.640Z,1002.8
2024-04-06T15:47:15.633Z,1002.7
2024-04-06T15:48:37.669Z,1002.7
2024-04-06T15:49:59.723Z,1002.7
2024-04-06T15:51:21.656Z,1002.7
2024-04-06T15:52:47.661Z,1002.7
2024-04-06T15:54:09.687Z,1002.7
2024-04-06T15:55:33.688Z,1002.7
2024-04-06T15:59:01.665Z,1002.7
2024-04-06T16:01:05.656Z,1002.7
2024-04-06T16:02:27.679Z,1002.7
2024-04-06T16:03:50.686Z,1002.7
2024-04-06T16:05:17.651Z,1002.6
2024-04-06T16:07:25.687Z,1002.5
2024-04-06T16:08:49.663Z,1002.5
2024-04-06T16:10:11.700Z,1002.5
2024-04-06T16:11:35.026Z,1002.5
2024-04-06T16:12:57.661Z,1002.4
2024-04-06T16:14:22.955Z,1002.5
2024-04-06T16:16:26.682Z,1002.4
2024-04-06T16:18:32.950Z,1002.3
2024-04-06T16:19:55.847Z,1002.4
2024-04-06T16:21:17.689Z,1002.4
2024-04-06T16:22:41.680Z,1002.4
2024-04-06T16:24:04.934Z,1002.4
2024-04-06T16:25:26.713Z,1002.4
2024-04-06T16:26:49.713Z,1002.4
2024-04-06T16:30:30.694Z,1002.4
2024-04-06T16:31:52.692Z,1002.4
2024-04-06T16:33:17.801Z,1002.4
2024-04-06T16:35:25.700Z,1002.4
2024-04-06T16:36:50.692Z,1002.4
2024-04-06T16:38:12.952Z,1002.4
2024-04-06T16:39:40.500Z,1002.5
2024-04-06T16:41:06.710Z,1002.5
2024-04-06T16:41:51.561Z,1002.5
2024-04-06T16:42:33.702Z,1002.5
2024-04-06T16:43:55.728Z,1002.5
2024-04-06T16:45:17.923Z,1002.5
2024-04-06T16:46:41.707Z,1002.5
2024-04-06T16:48:05.699Z,1002.5
2024-04-06T16:49:27.852Z,1002.5
2024-04-06T16:50:54.706Z,1002.6
2024-04-06T16:52:16.915Z,1002.6
2024-04-06T16:53:38.985Z,1002.5
2024-04-06T16:55:00.816Z,1002.5
2024-04-06T16:56:23.045Z,1002.5
2024-04-06T16:57:45.719Z,1002.5
2024-04-06T16:59:08.709Z,1002.6
2024-04-06T17:00:33.876Z,1002.6
2024-04-06T17:01:58.745Z,1002.6
2024-04-06T17:03:23.427Z,1002.6
2024-04-06T17:04:46.682Z,1002.6
2024-04-06T17:06:14.198Z,1002.6
2024-04-06T17:07:40.352Z,1002.3
2024-04-06T17:09:43.718Z,1002.5
2024-04-06T17:11:07.994Z,1002.5
2024-04-06T17:12:29.720Z,1002.4
2024-04-06T17:13:55.593Z,1000.9
2024-04-06T17:15:58.699Z,1002.5
2024-04-06T17:17:24.711Z,1002.5
2024-04-06T17:18:50.711Z,1002.6
2024-04-06T17:20:12.972Z,1002.6
2024-04-06T17:21:35.950Z,1002.6
2024-04-06T17:23:01.523Z,1002.6
2024-04-06T17:23:42.792Z,1002.5
2024-04-06T17:25:07.359Z,1002.6
2024-04-06T17:26:29.912Z,1002.4
2024-04-06T17:27:51.819Z,1002.5
2024-04-06T17:28:33.746Z,1002.5
2024-04-06T17:29:55.762Z,1002.6
2024-04-06T17:31:17.703Z,1002.6
2024-04-06T17:32:42.922Z,1002.5
2024-04-06T17:34:50.574Z,1002.6
2024-04-06T17:36:14.969Z,1002.6
2024-04-06T17:37:39.646Z,1002.7
2024-04-06T17:39:02.711Z,1002.6
2024-04-06T17:41:08.733Z,1002.7
2024-04-06T17:42:30.720Z,1002.7
2024-04-06T17:43:52.722Z,1002.7
2024-04-06T17:45:17.755Z,1002.6
2024-04-06T17:46:42.774Z,1002.7
2024-04-06T17:48:47.929Z,1002.7
2024-04-06T17:50:10.842Z,1002.7
2024-04-06T17:52:14.752Z,1002.6
2024-04-06T17:53:36.727Z,1002.7
2024-04-06T17:54:58.732Z,1002.7
2024-04-06T17:56:21.734Z,1002.8
2024-04-06T17:57:49.705Z,1002.8
2024-04-06T17:58:30.724Z,1002.8
2024-04-06T17:59:52.922Z,1002.8
2024-04-06T18:01:15.776Z,1002.8
2024-04-06T18:01:57.793Z,1002.9
2024-04-06T18:04:00.728Z,1002.9
2024-04-06T18:04:41.721Z,1002.9
2024-04-06T18:06:47.773Z,1002.8
2024-04-06T18:08:12.848Z,1002.7
2024-04-06T18:09:36.759Z,1002.9
2024-04-06T18:11:01.738Z,1002.9
2024-04-06T18:12:29.574Z,1002.9
2024-04-06T18:13:52.753Z,1002.9
2024-04-06T18:15:17.840Z,1002.9
2024-04-06T18:16:45.737Z,1002.9
2024-04-06T18:17:27.800Z,1002.9
2024-04-06T18:18:50.759Z,1002.9
2024-04-06T18:20:13.831Z,1003.1
2024-04-06T18:21:35.727Z,1002.9
2024-04-06T18:22:58.779Z,1002.9
2024-04-06T18:26:25.740Z,1003
2024-04-06T18:27:48.991Z,1003
2024-04-06T18:29:58.744Z,1003
2024-04-06T18:31:21.750Z,1002.9
2024-04-06T18:32:45.745Z,1003
2024-04-06T18:34:08.996Z,1003.1
2024-04-06T18:35:31.750Z,1002.6
2024-04-06T18:37:35.998Z,1003.1
2024-04-06T18:38:58.803Z,1003.1
2024-04-06T18:39:39.750Z,1003.1
2024-04-06T18:41:02.786Z,1003.1
2024-04-06T18:42:31.010Z,1003.1
2024-04-06T18:43:52.763Z,1003.1
2024-04-06T18:45:20.559Z,1002.8
2024-04-06T18:46:42.768Z,1003.1
2024-04-06T18:48:06.036Z,1003.1
2024-04-06T18:49:27.800Z,1003.1
2024-04-06T18:50:50.016Z,1003.1
2024-04-06T18:52:13.066Z,1003.1
2024-04-06T18:53:35.782Z,1003.1
2024-04-06T18:55:03.068Z,1003.1
2024-04-06T18:56:27.789Z,1003.1
2024-04-06T18:57:52.557Z,1003.2
2024-04-06T18:59:24.803Z,1003.2
2024-04-06T19:00:49.562Z,1003.2
2024-04-06T19:02:15.584Z,1003.2
2024-04-06T19:03:38.829Z,1003.2
2024-04-06T19:05:00.801Z,1003.2
2024-04-06T19:07:06.394Z,1003.2